createdAt,value
2023-03-06T00:00:54.357Z,100429.17
2023-03-06T00:03:24.090Z,100428.00
2023-03-06T00:05:55.846Z,100427.48
2023-03-06T00:08:25.223Z,100427.13
2023-03-06T00:10:54.474Z,100428.08
2023-03-06T00:13:23.466Z,100430.95
2023-03-06T00:15:52.294Z,100435.02
2023-03-06T00:18:20.981Z,100434.50
2023-03-06T00:20:49.691Z,100432.04
2023-03-06T00:23:18.482Z,100429.08
2023-03-06T00:25:47.376Z,100426.94
2023-03-06T00:28:16.265Z,100421.17
2023-03-06T00:30:46.411Z,100424.10
2023-03-06T00:33:15.132Z,100424.52
2023-03-06T00:35:43.878Z,100428.47
2023-03-06T00:38:13.236Z,100428.70
2023-03-06T00:40:42.064Z,100425.33
2023-03-06T00:43:10.935Z,100423.33
2023-03-06T00:45:39.519Z,100420.23
2023-03-06T00:48:07.733Z,100416.88
2023-03-06T00:50:36.396Z,100415.11
2023-03-06T00:53:04.714Z,100416.13
2023-03-06T00:55:33.707Z,100413.91
2023-03-06T00:58:01.941Z,100414.31
2023-03-06T01:00:30.219Z,100415.91
2023-03-06T01:02:58.297Z,100413.09
2023-03-06T01:05:26.787Z,100416.63
2023-03-06T01:07:54.990Z,100421.89
2023-03-06T01:10:23.326Z,100431.80
2023-03-06T01:12:51.532Z,100433.05
2023-03-06T01:15:19.762Z,100429.35
2023-03-06T01:17:48.337Z,100424.88
2023-03-06T01:20:18.928Z,100426.41
2023-03-06T01:22:47.136Z,100430.34
2023-03-06T01:25:15.277Z,100432.02
2023-03-06T01:27:43.495Z,100430.67
2023-03-06T01:30:12.388Z,100426.48
2023-03-06T01:32:40.597Z,100424.77
2023-03-06T01:35:09.462Z,100423.15
2023-03-06T01:37:38.281Z,100424.84
2023-03-06T01:40:09.349Z,100428.35
2023-03-06T01:42:37.588Z,100425.39
2023-03-06T01:45:11.529Z,100426.60
2023-03-06T01:47:39.832Z,100422.66
2023-03-06T01:50:12.221Z,100420.27
2023-03-06T01:52:47.303Z,100419.80
2023-03-06T01:55:21.885Z,100421.11
2023-03-06T01:57:53.939Z,100420.83
2023-03-06T02:00:25.152Z,100420.84
2023-03-06T02:03:00.712Z,100417.18
2023-03-06T02:05:28.882Z,100413.23
2023-03-06T02:07:57.950Z,100409.58
2023-03-06T02:10:26.101Z,100415.94
2023-03-06T02:12:54.379Z,100416.16
2023-03-06T02:15:27.848Z,100421.33
2023-03-06T02:17:56.213Z,100423.19
2023-03-06T02:20:45.771Z,100424.31
2023-03-06T02:23:35.082Z,100426.73
2023-03-06T02:26:04.015Z,100429.25
2023-03-06T02:28:32.244Z,100432.67
2023-03-06T02:31:00.520Z,100432.42
2023-03-06T02:33:29.698Z,100432.16
2023-03-06T02:36:16.461Z,100430.45
2023-03-06T02:38:49.675Z,100433.60
2023-03-06T02:41:17.807Z,100434.40
2023-03-06T02:43:47.466Z,100437.98
2023-03-06T02:46:15.683Z,100438.16
2023-03-06T02:48:44.144Z,100437.49
2023-03-06T02:51:12.318Z,100436.88
2023-03-06T02:53:40.523Z,100439.95
2023-03-06T02:56:08.757Z,100438.35
2023-03-06T02:58:37.159Z,100443.34
2023-03-06T03:01:05.689Z,100441.01
2023-03-06T03:03:33.898Z,100438.84
2023-03-06T03:06:04.585Z,100440.58
2023-03-06T03:08:33.523Z,100439.43
2023-03-06T03:11:02.230Z,100438.14
2023-03-06T03:13:30.361Z,100436.95
2023-03-06T03:16:07.247Z,100436.01
2023-03-06T03:18:36.020Z,100437.52
2023-03-06T03:21:08.375Z,100439.55
2023-03-06T03:23:36.483Z,100437.67
2023-03-06T03:26:23.158Z,100439.55
2023-03-06T03:28:51.314Z,100439.79
2023-03-06T03:31:19.504Z,100439.30
2023-03-06T03:33:47.592Z,100438.33
2023-03-06T03:36:15.685Z,100441.16
2023-03-06T03:38:43.794Z,100446.29
2023-03-06T03:41:11.922Z,100445.19
2023-03-06T03:43:40.139Z,100446.41
2023-03-06T03:46:08.238Z,100443.02
2023-03-06T03:48:36.444Z,100441.75
2023-03-06T03:51:09.336Z,100444.11
2023-03-06T03:53:37.823Z,100444.12
2023-03-06T03:56:06.675Z,100444.39
2023-03-06T03:58:34.878Z,100443.31
2023-03-06T04:01:03.089Z,100442.91
2023-03-06T04:03:31.515Z,100445.90
2023-03-06T04:06:00.129Z,100443.98
2023-03-06T04:08:28.394Z,100444.75
2023-03-06T04:10:56.622Z,100444.25
2023-03-06T04:13:25.238Z,100444.70
2023-03-06T04:15:54.436Z,100444.93
2023-03-06T04:18:23.412Z,100448.54
2023-03-06T04:20:52.005Z,100445.55
2023-03-06T04:23:20.570Z,100449.34
2023-03-06T04:25:48.745Z,100447.22
2023-03-06T04:28:17.323Z,100450.48
2023-03-06T04:30:45.463Z,100451.44
2023-03-06T04:33:13.589Z,100457.59
2023-03-06T04:35:41.768Z,100458.33
2023-03-06T04:38:09.891Z,100458.38
2023-03-06T04:40:38.242Z,100457.08
2023-03-06T04:43:06.565Z,100459.23
2023-03-06T04:45:34.862Z,100462.59
2023-03-06T04:48:03.513Z,100457.63
2023-03-06T04:50:32.771Z,100459.54
2023-03-06T04:53:02.178Z,100459.73
2023-03-06T04:55:30.885Z,100460.89
2023-03-06T04:57:59.270Z,100463.64
2023-03-06T05:00:30.720Z,100467.81
2023-03-06T05:03:02.379Z,100474.54
2023-03-06T05:05:30.675Z,100478.95
2023-03-06T05:07:58.819Z,100482.13
2023-03-06T05:10:27.114Z,100482.05
2023-03-06T05:12:55.277Z,100485.81
2023-03-06T05:15:23.566Z,100485.23
2023-03-06T05:17:51.751Z,100486.48
2023-03-06T05:20:20.143Z,100489.63
2023-03-06T05:22:48.211Z,100491.30
2023-03-06T05:25:16.480Z,100492.53
2023-03-06T05:27:45.105Z,100492.98
2023-03-06T05:30:14.871Z,100490.02
2023-03-06T05:32:43.190Z,100493.44
2023-03-06T05:35:17.707Z,100494.52
2023-03-06T05:37:46.535Z,100494.92
2023-03-06T05:40:16.356Z,100496.27
2023-03-06T05:42:44.782Z,100499.36
2023-03-06T05:45:12.946Z,100495.61
2023-03-06T05:47:41.211Z,100499.25
2023-03-06T05:50:10.675Z,100497.76
2023-03-06T05:52:40.039Z,100501.25
2023-03-06T05:55:10.162Z,100502.88
2023-03-06T05:57:38.343Z,100504.63
2023-03-06T06:00:07.759Z,100508.98
2023-03-06T06:02:35.918Z,100507.07
2023-03-06T06:05:04.715Z,100511.63
2023-03-06T06:07:32.968Z,100513.59
2023-03-06T06:10:03.548Z,100512.21
2023-03-06T06:12:32.450Z,100517.98
2023-03-06T06:15:00.621Z,100519.16
2023-03-06T06:17:28.695Z,100521.40
2023-03-06T06:19:56.825Z,100523.46
2023-03-06T06:22:25.039Z,100530.98
2023-03-06T06:24:53.212Z,100529.73
2023-03-06T06:27:21.387Z,100529.76
2023-03-06T06:29:51.913Z,100534.30
2023-03-06T06:32:20.040Z,100538.65
2023-03-06T06:34:48.294Z,100539.42
2023-03-06T06:37:16.609Z,100543.14
2023-03-06T06:39:44.817Z,100548.46
2023-03-06T06:42:30.982Z,100547.19
2023-03-06T06:45:01.109Z,100549.98
2023-03-06T06:47:29.821Z,100548.48
2023-03-06T06:49:58.118Z,100551.76
2023-03-06T06:52:26.538Z,100554.60
2023-03-06T06:54:54.914Z,100557.85
2023-03-06T06:57:23.063Z,100556.02
2023-03-06T06:59:53.777Z,100557.02
2023-03-06T07:02:22.444Z,100557.01
2023-03-06T07:05:03.023Z,100557.32
2023-03-06T07:07:37.321Z,100558.56
2023-03-06T07:10:07.939Z,100561.05
2023-03-06T07:12:37.243Z,100566.99
2023-03-06T07:15:06.544Z,100561.52
2023-03-06T07:17:34.660Z,100568.30
2023-03-06T07:20:03.092Z,100568.06
2023-03-06T07:22:38.739Z,100573.70
2023-03-06T07:25:16.734Z,100576.35
2023-03-06T07:27:51.041Z,100577.36
2023-03-06T07:30:23.346Z,100579.09
2023-03-06T07:32:56.400Z,100577.72
2023-03-06T07:35:25.252Z,100580.55
2023-03-06T07:37:53.922Z,100582.02
2023-03-06T07:40:22.649Z,100583.52
2023-03-06T07:42:54.186Z,100588.52
2023-03-06T07:45:22.688Z,100586.83
2023-03-06T07:47:51.612Z,100591.98
2023-03-06T07:50:20.805Z,100591.09
2023-03-06T07:52:50.635Z,100592.54
2023-03-06T07:55:18.870Z,100592.75
2023-03-06T07:57:50.174Z,100591.83
2023-03-06T08:00:18.834Z,100589.79
2023-03-06T08:02:47.117Z,100592.17
2023-03-06T08:05:16.778Z,100593.73
2023-03-06T08:07:45.734Z,100591.84
2023-03-06T08:10:15.582Z,100590.95
2023-03-06T08:12:43.856Z,100588.52
2023-03-06T08:15:13.916Z,100584.64
2023-03-06T08:17:42.073Z,100583.41
2023-03-06T08:20:10.968Z,100579.33
2023-03-06T08:22:39.381Z,100575.98
2023-03-06T08:25:08.721Z,100574.67
2023-03-06T08:27:36.896Z,100574.77
2023-03-06T08:30:05.962Z,100574.52
2023-03-06T08:32:37.300Z,100572.66
2023-03-06T08:35:05.994Z,100574.45
2023-03-06T08:37:34.190Z,100574.84
2023-03-06T08:40:04.833Z,100572.65
2023-03-06T08:42:33.192Z,100572.93
2023-03-06T08:45:01.334Z,100573.11
2023-03-06T08:47:29.514Z,100579.64
2023-03-06T08:50:00.501Z,100578.25
2023-03-06T08:52:28.890Z,100579.23
2023-03-06T08:54:58.196Z,100582.02
2023-03-06T08:57:26.484Z,100579.85
2023-03-06T08:59:54.746Z,100582.91
2023-03-06T09:02:23.037Z,100581.50
2023-03-06T09:04:51.362Z,100582.58
2023-03-06T09:07:19.508Z,100587.06
2023-03-06T09:09:47.777Z,100585.19
2023-03-06T09:12:16.088Z,100584.17
2023-03-06T09:14:44.348Z,100580.30
2023-03-06T09:17:12.414Z,100577.95
2023-03-06T09:19:40.726Z,100578.21
2023-03-06T09:22:08.838Z,100577.41
2023-03-06T09:24:37.116Z,100573.11
2023-03-06T09:27:05.312Z,100573.80
2023-03-06T09:29:33.556Z,100568.56
2023-03-06T09:32:01.799Z,100569.52
2023-03-06T09:34:30.042Z,100568.73
2023-03-06T09:36:58.437Z,100569.75
2023-03-06T09:39:27.488Z,100572.77
2023-03-06T09:41:57.575Z,100574.35
2023-03-06T09:44:28.991Z,100570.52
2023-03-06T09:47:09.040Z,100573.18
2023-03-06T09:49:56.637Z,100571.35
2023-03-06T09:52:36.845Z,100574.94
2023-03-06T09:55:04.957Z,100573.27
2023-03-06T09:57:57.597Z,100577.64
2023-03-06T10:00:37.620Z,100574.55
2023-03-06T10:03:27.328Z,100577.73
2023-03-06T10:06:02.492Z,100570.60
2023-03-06T10:08:53.783Z,100568.80
2023-03-06T10:11:45.642Z,100572.35
2023-03-06T10:14:16.890Z,100571.83
2023-03-06T10:16:45.101Z,100571.98
2023-03-06T10:19:20.804Z,100573.03
2023-03-06T10:22:02.651Z,100567.40
2023-03-06T10:24:46.433Z,100567.38
2023-03-06T10:27:37.584Z,100563.11
2023-03-06T10:30:14.965Z,100564.83
2023-03-06T10:32:52.112Z,100565.68
2023-03-06T10:35:22.927Z,100561.16
2023-03-06T10:37:51.418Z,100559.38
2023-03-06T10:40:21.810Z,100554.95
2023-03-06T10:42:58.773Z,100551.66
2023-03-06T10:45:49.436Z,100550.19
2023-03-06T10:48:24.296Z,100550.70
2023-03-06T10:50:55.067Z,100549.80
2023-03-06T10:53:26.742Z,100550.02
2023-03-06T10:55:57.132Z,100549.30
2023-03-06T10:58:32.040Z,100545.73
2023-03-06T11:01:26.947Z,100543.54
2023-03-06T11:04:25.613Z,100540.83
2023-03-06T11:07:07.321Z,100540.47
2023-03-06T11:09:36.109Z,100535.19
2023-03-06T11:12:21.342Z,100532.47
2023-03-06T11:15:08.108Z,100534.67
2023-03-06T11:17:38.909Z,100531.14
2023-03-06T11:20:20.968Z,100529.39
2023-03-06T11:22:55.468Z,100528.52
2023-03-06T11:25:29.721Z,100524.48
2023-03-06T11:28:07.768Z,100520.33
2023-03-06T11:30:45.692Z,100518.31
2023-03-06T11:33:30.857Z,100516.96
2023-03-06T11:36:04.819Z,100512.77
2023-03-06T11:38:52.901Z,100510.63
2023-03-06T11:41:31.974Z,100512.31
2023-03-06T11:44:15.566Z,100513.52
2023-03-06T11:46:48.877Z,100515.31
2023-03-06T11:49:35.163Z,100506.19
2023-03-06T11:52:13.301Z,100506.08
2023-03-06T11:54:41.537Z,100505.02
2023-03-06T11:57:24.607Z,100500.04
2023-03-06T12:00:04.992Z,100495.06
2023-03-06T12:02:54.155Z,100494.98
2023-03-06T12:05:36.530Z,100491.45
2023-03-06T12:08:26.127Z,100488.35
2023-03-06T12:11:33.235Z,100490.02
2023-03-06T12:14:06.259Z,100482.80
2023-03-06T12:16:44.736Z,100484.72
2023-03-06T12:19:15.962Z,100478.57
2023-03-06T12:22:03.562Z,100482.97
2023-03-06T12:24:40.672Z,100480.08
2023-03-06T12:27:17.855Z,100476.02
2023-03-06T12:29:57.836Z,100476.93
2023-03-06T12:32:35.416Z,100480.41
2023-03-06T12:35:28.426Z,100477.53
2023-03-06T12:38:08.146Z,100474.89
2023-03-06T12:41:10.321Z,100476.36
2023-03-06T12:43:54.315Z,100475.52
2023-03-06T12:46:24.544Z,100472.15
2023-03-06T12:49:31.890Z,100470.36
2023-03-06T12:52:02.524Z,100468.73
2023-03-06T12:54:32.655Z,100466.66
2023-03-06T12:57:01.150Z,100464.64
2023-03-06T12:59:48.093Z,100464.45
2023-03-06T13:02:53.458Z,100466.25
2023-03-06T13:06:07.516Z,100463.89
2023-03-06T13:08:52.918Z,100474.13
2023-03-06T13:11:58.338Z,100473.25
2023-03-06T13:14:54.634Z,100476.64
2023-03-06T13:17:23.299Z,100475.46
2023-03-06T13:20:14.597Z,100473.00
2023-03-06T13:22:44.318Z,100471.08
2023-03-06T13:25:21.629Z,100472.02
2023-03-06T13:27:52.510Z,100469.98
2023-03-06T13:30:41.864Z,100468.39
2023-03-06T13:33:30.192Z,100466.82
2023-03-06T13:36:00.396Z,100467.36
2023-03-06T13:38:40.819Z,100464.98
2023-03-06T13:41:21.432Z,100466.00
2023-03-06T13:43:54.438Z,100465.88
2023-03-06T13:46:37.613Z,100464.96
2023-03-06T13:49:08.813Z,100465.27
2023-03-06T13:51:42.741Z,100467.63
2023-03-06T13:54:32.257Z,100466.84
2023-03-06T13:57:25.114Z,100466.48
2023-03-06T14:00:11.835Z,100463.91
2023-03-06T14:03:08.123Z,100468.55
2023-03-06T14:05:47.830Z,100470.77
2023-03-06T14:08:21.947Z,100471.14
2023-03-06T14:11:19.690Z,100470.34
2023-03-06T14:13:54.348Z,100469.55
2023-03-06T14:16:32.729Z,100467.98
2023-03-06T14:19:08.736Z,100468.21
2023-03-06T14:21:46.726Z,100467.13
2023-03-06T14:24:17.178Z,100466.57
2023-03-06T14:26:51.309Z,100469.20
2023-03-06T14:29:27.669Z,100472.09
2023-03-06T14:31:58.276Z,100475.44
2023-03-06T14:34:31.488Z,100476.33
2023-03-06T14:37:05.715Z,100473.66
2023-03-06T14:39:36.780Z,100473.77
2023-03-06T14:42:09.137Z,100474.40
2023-03-06T14:44:37.289Z,100474.85
2023-03-06T14:47:23.452Z,100475.32
2023-03-06T14:50:19.775Z,100476.36
2023-03-06T14:53:08.908Z,100479.86
2023-03-06T14:55:37.404Z,100476.83
2023-03-06T14:58:12.308Z,100478.16
2023-03-06T15:00:44.357Z,100475.67
2023-03-06T15:03:18.442Z,100475.53
2023-03-06T15:05:47.670Z,100476.10
2023-03-06T15:08:25.967Z,100478.90
2023-03-06T15:11:02.766Z,100482.55
2023-03-06T15:13:32.427Z,100484.23
2023-03-06T15:16:04.870Z,100482.59
2023-03-06T15:18:36.324Z,100482.67
2023-03-06T15:21:13.425Z,100484.80
2023-03-06T15:23:43.836Z,100484.05
2023-03-06T15:26:29.159Z,100485.77
2023-03-06T15:29:10.367Z,100488.52
2023-03-06T15:31:40.930Z,100489.21
2023-03-06T15:34:12.136Z,100486.98
2023-03-06T15:36:48.616Z,100490.16
2023-03-06T15:39:35.990Z,100488.92
2023-03-06T15:42:16.313Z,100486.20
2023-03-06T15:44:48.366Z,100486.33
2023-03-06T15:47:16.744Z,100490.73
2023-03-06T15:49:45.063Z,100494.04
2023-03-06T15:52:13.205Z,100492.41
2023-03-06T15:54:41.323Z,100495.06
2023-03-06T15:57:19.425Z,100495.87
2023-03-06T15:59:47.744Z,100496.37
2023-03-06T16:02:20.817Z,100499.19
2023-03-06T16:04:49.661Z,100502.36
2023-03-06T16:07:17.902Z,100506.05
2023-03-06T16:09:46.160Z,100509.98
2023-03-06T16:12:19.584Z,100510.90
2023-03-06T16:14:48.878Z,100516.55
2023-03-06T16:17:17.385Z,100519.21
2023-03-06T16:19:45.865Z,100521.16
2023-03-06T16:22:14.680Z,100519.94
2023-03-06T16:24:43.482Z,100517.73
2023-03-06T16:27:18.466Z,100519.05
2023-03-06T16:29:46.815Z,100521.11
2023-03-06T16:32:15.073Z,100523.38
2023-03-06T16:34:43.243Z,100523.80
2023-03-06T16:37:13.479Z,100524.88
2023-03-06T16:39:41.613Z,100523.23
2023-03-06T16:42:09.936Z,100525.19
2023-03-06T16:44:38.230Z,100531.75
2023-03-06T16:47:06.764Z,100528.55
2023-03-06T16:49:35.003Z,100532.60
2023-03-06T16:52:04.736Z,100533.88
2023-03-06T16:54:32.864Z,100536.15
2023-03-06T16:57:00.953Z,100535.08
2023-03-06T16:59:29.103Z,100534.11
2023-03-06T17:01:57.484Z,100533.20
2023-03-06T17:04:25.744Z,100530.10
2023-03-06T17:06:53.880Z,100531.30
2023-03-06T17:09:22.077Z,100530.75
2023-03-06T17:11:50.263Z,100532.19
2023-03-06T17:14:18.475Z,100531.48
2023-03-06T17:16:46.712Z,100531.05
2023-03-06T17:19:15.363Z,100530.29
2023-03-06T17:21:44.465Z,100529.75
2023-03-06T17:24:12.694Z,100530.62
2023-03-06T17:26:40.878Z,100528.35
2023-03-06T17:29:09.824Z,100530.31
2023-03-06T17:31:38.040Z,100533.93
2023-03-06T17:34:06.196Z,100533.14
2023-03-06T17:36:34.493Z,100536.45
2023-03-06T17:39:03.093Z,100534.52
2023-03-06T17:41:33.024Z,100536.96
2023-03-06T17:44:02.059Z,100537.25
2023-03-06T17:46:32.400Z,100534.86
2023-03-06T17:49:00.692Z,100537.78
2023-03-06T17:51:28.894Z,100537.61
2023-03-06T17:53:57.645Z,100540.15
2023-03-06T17:56:26.225Z,100542.98
2023-03-06T17:58:54.569Z,100544.25
2023-03-06T18:01:27.613Z,100543.97
2023-03-06T18:03:56.110Z,100545.59
2023-03-06T18:06:26.247Z,100552.05
2023-03-06T18:08:54.884Z,100555.23
2023-03-06T18:11:23.446Z,100553.37
2023-03-06T18:13:51.857Z,100555.28
2023-03-06T18:16:23.468Z,100551.41
2023-03-06T18:18:53.837Z,100552.14
2023-03-06T18:21:22.921Z,100553.69
2023-03-06T18:23:51.263Z,100552.94
2023-03-06T18:26:22.029Z,100553.53
2023-03-06T18:28:54.283Z,100549.50
2023-03-06T18:31:37.207Z,100548.58
2023-03-06T18:34:13.728Z,100552.12
2023-03-06T18:36:47.317Z,100551.13
2023-03-06T18:39:15.975Z,100552.58
2023-03-06T18:41:44.138Z,100554.08
2023-03-06T18:44:15.347Z,100558.11
2023-03-06T18:46:43.841Z,100560.02
2023-03-06T18:49:12.763Z,100562.66
2023-03-06T18:51:41.085Z,100561.39
2023-03-06T18:54:10.689Z,100564.23
2023-03-06T18:56:40.537Z,100568.31
2023-03-06T18:59:08.745Z,100571.10
2023-03-06T19:01:37.872Z,100570.67
2023-03-06T19:04:06.056Z,100568.59
2023-03-06T19:06:34.270Z,100569.07
2023-03-06T19:09:02.575Z,100569.02
2023-03-06T19:11:32.186Z,100565.72
2023-03-06T19:14:00.889Z,100567.46
2023-03-06T19:16:30.581Z,100568.05
2023-03-06T19:18:59.468Z,100565.84
2023-03-06T19:21:28.748Z,100562.73
2023-03-06T19:23:57.412Z,100562.48
2023-03-06T19:26:26.654Z,100560.29
2023-03-06T19:28:54.789Z,100565.18
2023-03-06T19:31:25.584Z,100567.78
2023-03-06T19:33:54.978Z,100566.38
2023-03-06T19:36:26.959Z,100564.95
2023-03-06T19:38:56.668Z,100567.63
2023-03-06T19:41:25.157Z,100567.59
2023-03-06T19:43:56.531Z,100564.09
2023-03-06T19:46:26.368Z,100564.77
2023-03-06T19:48:56.710Z,100564.33
2023-03-06T19:51:25.802Z,100563.85
2023-03-06T19:53:54.085Z,100569.34
2023-03-06T19:56:26.379Z,100570.68
2023-03-06T19:58:54.918Z,100571.10
2023-03-06T20:01:25.132Z,100568.91
2023-03-06T20:03:59.748Z,100568.09
2023-03-06T20:06:31.277Z,100569.98
2023-03-06T20:09:01.280Z,100566.29
2023-03-06T20:11:32.799Z,100566.79
2023-03-06T20:14:02.499Z,100564.98
2023-03-06T20:16:31.419Z,100560.56
2023-03-06T20:19:00.958Z,100560.86
2023-03-06T20:21:31.895Z,100557.92
2023-03-06T20:24:00.011Z,100556.88
2023-03-06T20:26:29.357Z,100555.27
2023-03-06T20:28:59.346Z,100554.46
2023-03-06T20:31:29.418Z,100551.79
2023-03-06T20:33:59.561Z,100549.77
2023-03-06T20:36:30.385Z,100546.88
2023-03-06T20:39:04.152Z,100545.61
2023-03-06T20:41:32.753Z,100546.75
2023-03-06T20:44:02.820Z,100541.67
2023-03-06T20:46:31.499Z,100546.25
2023-03-06T20:49:00.246Z,100540.17
2023-03-06T20:51:33.495Z,100539.84
2023-03-06T20:54:02.550Z,100539.48
2023-03-06T20:56:33.132Z,100538.35
2023-03-06T20:59:02.036Z,100536.63
2023-03-06T21:01:35.460Z,100533.40
2023-03-06T21:04:06.935Z,100528.77
2023-03-06T21:06:35.169Z,100529.31
2023-03-06T21:09:05.066Z,100532.13
2023-03-06T21:11:34.873Z,100530.95
2023-03-06T21:14:03.293Z,100525.79
2023-03-06T21:16:31.851Z,100525.28
2023-03-06T21:19:00.586Z,100521.91
2023-03-06T21:21:31.754Z,100520.45
2023-03-06T21:24:00.702Z,100522.03
2023-03-06T21:26:33.991Z,100518.25
2023-03-06T21:29:02.925Z,100519.32
2023-03-06T21:31:31.910Z,100515.89
2023-03-06T21:34:00.235Z,100514.86
2023-03-06T21:36:28.688Z,100512.13
2023-03-06T21:38:56.864Z,100509.15
2023-03-06T21:41:27.891Z,100508.34
2023-03-06T21:44:01.019Z,100505.66
2023-03-06T21:46:29.658Z,100501.84
2023-03-06T21:48:58.204Z,100500.71
2023-03-06T21:51:26.839Z,100499.91
2023-03-06T21:53:55.258Z,100498.54
2023-03-06T21:56:25.614Z,100495.20
2023-03-06T21:58:54.560Z,100492.98
2023-03-06T22:01:25.336Z,100484.91
2023-03-06T22:03:54.081Z,100481.52
2023-03-06T22:06:25.157Z,100473.54
2023-03-06T22:08:55.366Z,100472.19
2023-03-06T22:11:24.764Z,100478.91
2023-03-06T22:13:55.873Z,100482.09
2023-03-06T22:16:24.188Z,100481.65
2023-03-06T22:18:52.359Z,100486.28
2023-03-06T22:21:21.914Z,100485.20
2023-03-06T22:23:57.449Z,100483.14
2023-03-06T22:26:29.795Z,100479.59
2023-03-06T22:28:57.916Z,100479.26
2023-03-06T22:31:28.891Z,100478.33
2023-03-06T22:33:59.331Z,100477.66
2023-03-06T22:36:30.542Z,100475.23
2023-03-06T22:39:01.392Z,100473.61
2023-03-06T22:41:30.048Z,100473.28
2023-03-06T22:43:59.553Z,100477.73
2023-03-06T22:46:28.339Z,100480.29
2023-03-06T22:48:57.595Z,100485.69
2023-03-06T22:51:27.332Z,100486.15
2023-03-06T22:53:55.713Z,100487.64
2023-03-06T22:56:23.954Z,100488.33
2023-03-06T22:58:52.416Z,100488.01
2023-03-06T23:01:23.366Z,100487.24
2023-03-06T23:03:53.778Z,100486.98
2023-03-06T23:06:24.279Z,100486.95
2023-03-06T23:08:58.284Z,100484.64
2023-03-06T23:11:28.145Z,100481.69
2023-03-06T23:13:57.203Z,100481.48
2023-03-06T23:16:26.243Z,100482.17
2023-03-06T23:18:54.444Z,100480.70
2023-03-06T23:21:23.035Z,100475.83
2023-03-06T23:23:52.859Z,100476.40
2023-03-06T23:26:23.711Z,100478.07
2023-03-06T23:28:52.311Z,100480.03
2023-03-06T23:31:23.890Z,100474.92
2023-03-06T23:33:52.107Z,100468.42
2023-03-06T23:36:20.216Z,100464.48
2023-03-06T23:38:48.401Z,100459.05
2023-03-06T23:41:18.405Z,100456.80
2023-03-06T23:43:48.078Z,100451.63
2023-03-06T23:46:17.110Z,100452.04
2023-03-06T23:48:46.233Z,100455.59
2023-03-06T23:51:19.677Z,100458.55
2023-03-06T23:53:52.919Z,100456.09
2023-03-06T23:56:21.063Z,100450.80
2023-03-06T23:58:49.266Z,100447.77
